Pagrindinis puslapis
METAR-TAF:

METAR-TAF

Oro uostai :

Singapūras, Singapūras

platuma: 01-25-08N, ilguma: 103-51-57E, Aukštis: 11 m

Dabartinis oras

Ataskaita buvo paskelbta 1 valandą ir 2 minutes, ne 20:00 UTC
Vėjas 2 kt nuo kintamojo kryptimis
Temperatūra 26°C
Drėgmė 89%
Slėgis 1009 hPa
Matomumas: 8000 m
Mažai debesys ne aukštis 1800 ft
Su prošvaistėmis ne aukštis 14000 ft

METAR: WSSL 222000Z VRB02KT 8000 FEW018 BKN140 26/24 Q1009

Laikas: 05:02 (21:02 UTC)

Prognozė

Ataskaita buvo paskelbta 4 valandos ir 2 minutes, ne 17:00 UTC
Prognozė galioja nuo 22 metu 18 UTC su 24 metu 00 UTC
Vėjas 7 kt iš Pietų/Pietvakarių
Matomumas 10 km arba daugiau
Mažai debesys ne aukštis 1500 ft
Išsisklaidę debesys ne aukštis 2000 ft

TAF: WSSL 221700Z 2218/2400 20007KT 9999 FEW015 SCT020

Orai ataskaitas ir orų prognozės (METAR, TAF).

turimą stotys yra geltonos ir raudonos taškus žemėlapyje.

Perkelti pele per norėdami pamatyti stoties vardą.

Tada spustelėkite, norėdami matyti oro stebėjimo ir prognozės.

Norėdami pakeisti žemėlapį: spustelėkite ant žalios mygtukų su juodo kryžiaus žemyn,; žalią mygtuką su brūkšneliu, jei norite nutolinti; arba žalių rodyklių gretimoms žemėlapius.


METAR-TAF: